sensor_id;sensor_type;location;lat;lon;timestamp;P1;durP1;ratioP1;P2;durP2;ratioP2
13897;SDS011;7019;50.766;4.474;2023-05-29T00:00:39;7.40;;;3.70;;
13897;SDS011;7019;50.766;4.474;2023-05-29T00:03:06;5.33;;;3.57;;
13897;SDS011;7019;50.766;4.474;2023-05-29T00:05:36;8.43;;;3.67;;
13897;SDS011;7019;50.766;4.474;2023-05-29T00:08:03;6.37;;;3.70;;
13897;SDS011;7019;50.766;4.474;2023-05-29T00:10:30;9.10;;;3.57;;
13897;SDS011;7019;50.766;4.474;2023-05-29T00:12:57;7.00;;;3.47;;
13897;SDS011;7019;50.766;4.474;2023-05-29T00:15:26;9.10;;;3.73;;
13897;SDS011;7019;50.766;4.474;2023-05-29T00:17:53;7.23;;;3.67;;
13897;SDS011;7019;50.766;4.474;2023-05-29T00:20:20;7.30;;;3.73;;
13897;SDS011;7019;50.766;4.474;2023-05-29T00:22:49;4.60;;;3.50;;
13897;SDS011;7019;50.766;4.474;2023-05-29T00:25:16;5.97;;;3.73;;
13897;SDS011;7019;50.766;4.474;2023-05-29T00:27:43;8.33;;;4.07;;
13897;SDS011;7019;50.766;4.474;2023-05-29T00:30:10;6.87;;;3.67;;
13897;SDS011;7019;50.766;4.474;2023-05-29T00:32:38;5.73;;;3.67;;
13897;SDS011;7019;50.766;4.474;2023-05-29T00:35:06;6.17;;;4.40;;
13897;SDS011;7019;50.766;4.474;2023-05-29T00:37:34;6.60;;;3.47;;
13897;SDS011;7019;50.766;4.474;2023-05-29T00:40:02;7.67;;;3.93;;
13897;SDS011;7019;50.766;4.474;2023-05-29T00:42:30;5.27;;;4.10;;
13897;SDS011;7019;50.766;4.474;2023-05-29T00:44:57;7.13;;;3.90;;
13897;SDS011;7019;50.766;4.474;2023-05-29T00:47:24;5.83;;;3.77;;
13897;SDS011;7019;50.766;4.474;2023-05-29T00:49:52;7.37;;;4.30;;
13897;SDS011;7019;50.766;4.474;2023-05-29T00:52:21;10.40;;;4.60;;
13897;SDS011;7019;50.766;4.474;2023-05-29T00:54:49;8.93;;;4.17;;
13897;SDS011;7019;50.766;4.474;2023-05-29T00:57:19;5.70;;;3.77;;
13897;SDS011;7019;50.766;4.474;2023-05-29T00:59:46;6.30;;;4.10;;
13897;SDS011;7019;50.766;4.474;2023-05-29T01:02:14;8.67;;;4.13;;
13897;SDS011;7019;50.766;4.474;2023-05-29T01:04:43;7.47;;;4.80;;
13897;SDS011;7019;50.766;4.474;2023-05-29T01:07:11;7.30;;;4.57;;
13897;SDS011;7019;50.766;4.474;2023-05-29T01:09:40;7.13;;;4.30;;
13897;SDS011;7019;50.766;4.474;2023-05-29T01:12:12;8.40;;;4.47;;
13897;SDS011;7019;50.766;4.474;2023-05-29T01:14:51;7.80;;;3.97;;
13897;SDS011;7019;50.766;4.474;2023-05-29T01:17:32;9.50;;;4.47;;
13897;SDS011;7019;50.766;4.474;2023-05-29T01:20:11;7.57;;;4.43;;
13897;SDS011;7019;50.766;4.474;2023-05-29T01:22:54;6.63;;;4.67;;
13897;SDS011;7019;50.766;4.474;2023-05-29T01:25:35;8.00;;;4.50;;
13897;SDS011;7019;50.766;4.474;2023-05-29T01:28:19;8.63;;;4.27;;
13897;SDS011;7019;50.766;4.474;2023-05-29T01:30:49;10.83;;;5.33;;
13897;SDS011;7019;50.766;4.474;2023-05-29T01:33:17;7.10;;;4.43;;
13897;SDS011;7019;50.766;4.474;2023-05-29T01:35:44;6.70;;;4.73;;
13897;SDS011;7019;50.766;4.474;2023-05-29T01:38:11;10.13;;;5.00;;
13897;SDS011;7019;50.766;4.474;2023-05-29T01:40:38;8.00;;;4.57;;
13897;SDS011;7019;50.766;4.474;2023-05-29T01:43:05;7.23;;;4.13;;
13897;SDS011;7019;50.766;4.474;2023-05-29T01:45:34;7.77;;;4.83;;
13897;SDS011;7019;50.766;4.474;2023-05-29T01:48:02;10.63;;;5.10;;
13897;SDS011;7019;50.766;4.474;2023-05-29T01:50:30;7.67;;;4.93;;
13897;SDS011;7019;50.766;4.474;2023-05-29T01:52:57;8.37;;;4.87;;
13897;SDS011;7019;50.766;4.474;2023-05-29T01:55:24;9.10;;;5.43;;
13897;SDS011;7019;50.766;4.474;2023-05-29T01:57:51;7.67;;;4.83;;
13897;SDS011;7019;50.766;4.474;2023-05-29T02:00:20;12.70;;;5.27;;
13897;SDS011;7019;50.766;4.474;2023-05-29T02:02:48;9.13;;;4.60;;
13897;SDS011;7019;50.766;4.474;2023-05-29T02:05:15;9.03;;;5.03;;
13897;SDS011;7019;50.766;4.474;2023-05-29T02:07:43;8.57;;;4.80;;
13897;SDS011;7019;50.766;4.474;2023-05-29T02:10:10;9.33;;;5.43;;
13897;SDS011;7019;50.766;4.474;2023-05-29T02:12:37;10.47;;;5.53;;
13897;SDS011;7019;50.766;4.474;2023-05-29T02:15:05;9.60;;;5.00;;
13897;SDS011;7019;50.766;4.474;2023-05-29T02:17:33;11.57;;;5.43;;
13897;SDS011;7019;50.766;4.474;2023-05-29T02:20:01;13.07;;;5.10;;
13897;SDS011;7019;50.766;4.474;2023-05-29T02:22:29;9.20;;;4.57;;
13897;SDS011;7019;50.766;4.474;2023-05-29T02:24:56;9.83;;;5.17;;
13897;SDS011;7019;50.766;4.474;2023-05-29T02:27:23;13.80;;;5.30;;
13897;SDS011;7019;50.766;4.474;2023-05-29T02:29:50;11.07;;;5.23;;
13897;SDS011;7019;50.766;4.474;2023-05-29T02:32:17;8.63;;;5.23;;
13897;SDS011;7019;50.766;4.474;2023-05-29T02:34:44;5.30;;;4.50;;
13897;SDS011;7019;50.766;4.474;2023-05-29T02:37:13;7.63;;;4.80;;
13897;SDS011;7019;50.766;4.474;2023-05-29T02:39:40;9.13;;;4.60;;
13897;SDS011;7019;50.766;4.474;2023-05-29T02:42:07;7.50;;;4.70;;
13897;SDS011;7019;50.766;4.474;2023-05-29T02:44:34;10.50;;;4.93;;
13897;SDS011;7019;50.766;4.474;2023-05-29T02:47:01;8.27;;;4.90;;
13897;SDS011;7019;50.766;4.474;2023-05-29T02:49:28;9.10;;;5.27;;
13897;SDS011;7019;50.766;4.474;2023-05-29T02:51:55;8.70;;;4.57;;
13897;SDS011;7019;50.766;4.474;2023-05-29T02:54:23;8.17;;;4.93;;
13897;SDS011;7019;50.766;4.474;2023-05-29T02:56:51;8.57;;;3.83;;
13897;SDS011;7019;50.766;4.474;2023-05-29T02:59:18;8.47;;;4.30;;
13897;SDS011;7019;50.766;4.474;2023-05-29T03:01:45;7.73;;;4.40;;
13897;SDS011;7019;50.766;4.474;2023-05-29T03:04:13;8.80;;;4.27;;
13897;SDS011;7019;50.766;4.474;2023-05-29T03:06:42;8.23;;;4.13;;
13897;SDS011;7019;50.766;4.474;2023-05-29T03:09:10;11.93;;;4.33;;
13897;SDS011;7019;50.766;4.474;2023-05-29T03:11:39;7.40;;;4.37;;
13897;SDS011;7019;50.766;4.474;2023-05-29T03:14:07;8.43;;;4.60;;
13897;SDS011;7019;50.766;4.474;2023-05-29T03:16:34;9.23;;;4.20;;
13897;SDS011;7019;50.766;4.474;2023-05-29T03:19:01;12.67;;;4.30;;
13897;SDS011;7019;50.766;4.474;2023-05-29T03:21:28;9.37;;;4.17;;
13897;SDS011;7019;50.766;4.474;2023-05-29T03:23:57;11.40;;;3.73;;
13897;SDS011;7019;50.766;4.474;2023-05-29T03:26:24;6.77;;;3.23;;
13897;SDS011;7019;50.766;4.474;2023-05-29T03:28:53;7.77;;;3.23;;
13897;SDS011;7019;50.766;4.474;2023-05-29T03:31:20;9.33;;;3.47;;
13897;SDS011;7019;50.766;4.474;2023-05-29T03:33:47;7.90;;;3.80;;
13897;SDS011;7019;50.766;4.474;2023-05-29T03:36:15;7.07;;;3.40;;
13897;SDS011;7019;50.766;4.474;2023-05-29T03:38:43;6.30;;;3.23;;
13897;SDS011;7019;50.766;4.474;2023-05-29T03:41:10;8.73;;;2.93;;
13897;SDS011;7019;50.766;4.474;2023-05-29T03:43:37;8.67;;;3.27;;
13897;SDS011;7019;50.766;4.474;2023-05-29T03:46:05;9.73;;;3.30;;
13897;SDS011;7019;50.766;4.474;2023-05-29T03:48:32;9.47;;;3.30;;
13897;SDS011;7019;50.766;4.474;2023-05-29T03:50:59;5.37;;;3.10;;
13897;SDS011;7019;50.766;4.474;2023-05-29T03:53:26;5.57;;;2.70;;
13897;SDS011;7019;50.766;4.474;2023-05-29T03:55:53;6.93;;;2.77;;
13897;SDS011;7019;50.766;4.474;2023-05-29T03:58:20;9.53;;;2.83;;
13897;SDS011;7019;50.766;4.474;2023-05-29T04:00:47;8.70;;;3.03;;
13897;SDS011;7019;50.766;4.474;2023-05-29T04:03:16;6.73;;;2.70;;
13897;SDS011;7019;50.766;4.474;2023-05-29T04:05:43;7.60;;;3.10;;
13897;SDS011;7019;50.766;4.474;2023-05-29T04:08:10;7.33;;;2.63;;
13897;SDS011;7019;50.766;4.474;2023-05-29T04:10:38;9.80;;;2.37;;
13897;SDS011;7019;50.766;4.474;2023-05-29T04:13:05;6.57;;;2.13;;
13897;SDS011;7019;50.766;4.474;2023-05-29T04:15:32;6.93;;;2.37;;
13897;SDS011;7019;50.766;4.474;2023-05-29T04:17:59;8.27;;;2.83;;
13897;SDS011;7019;50.766;4.474;2023-05-29T04:20:28;7.07;;;2.00;;
13897;SDS011;7019;50.766;4.474;2023-05-29T04:22:55;6.87;;;2.13;;
13897;SDS011;7019;50.766;4.474;2023-05-29T04:25:23;7.77;;;2.77;;
13897;SDS011;7019;50.766;4.474;2023-05-29T04:27:50;6.07;;;2.37;;
13897;SDS011;7019;50.766;4.474;2023-05-29T04:30:17;11.30;;;2.33;;
13897;SDS011;7019;50.766;4.474;2023-05-29T04:32:44;9.10;;;2.83;;
13897;SDS011;7019;50.766;4.474;2023-05-29T04:35:11;7.23;;;2.10;;
13897;SDS011;7019;50.766;4.474;2023-05-29T04:37:40;6.60;;;2.13;;
13897;SDS011;7019;50.766;4.474;2023-05-29T04:40:09;5.03;;;2.07;;
13897;SDS011;7019;50.766;4.474;2023-05-29T04:42:36;8.23;;;2.23;;
13897;SDS011;7019;50.766;4.474;2023-05-29T04:45:05;3.13;;;1.70;;
13897;SDS011;7019;50.766;4.474;2023-05-29T04:47:35;5.73;;;1.97;;
13897;SDS011;7019;50.766;4.474;2023-05-29T04:50:09;4.40;;;1.80;;
13897;SDS011;7019;50.766;4.474;2023-05-29T04:52:37;6.70;;;2.27;;
13897;SDS011;7019;50.766;4.474;2023-05-29T04:55:06;4.80;;;1.70;;
13897;SDS011;7019;50.766;4.474;2023-05-29T04:57:33;7.40;;;2.53;;
13897;SDS011;7019;50.766;4.474;2023-05-29T05:00:00;6.70;;;2.20;;
13897;SDS011;7019;50.766;4.474;2023-05-29T05:02:30;4.80;;;1.93;;
13897;SDS011;7019;50.766;4.474;2023-05-29T05:04:57;12.93;;;2.60;;
13897;SDS011;7019;50.766;4.474;2023-05-29T05:07:25;6.20;;;2.10;;
13897;SDS011;7019;50.766;4.474;2023-05-29T05:09:51;4.83;;;1.60;;
13897;SDS011;7019;50.766;4.474;2023-05-29T05:12:20;5.50;;;2.33;;
13897;SDS011;7019;50.766;4.474;2023-05-29T05:14:47;8.50;;;2.00;;
13897;SDS011;7019;50.766;4.474;2023-05-29T05:17:14;4.77;;;1.80;;
13897;SDS011;7019;50.766;4.474;2023-05-29T05:19:41;5.27;;;2.00;;
13897;SDS011;7019;50.766;4.474;2023-05-29T05:22:08;8.97;;;2.00;;
13897;SDS011;7019;50.766;4.474;2023-05-29T05:24:35;6.73;;;1.97;;
13897;SDS011;7019;50.766;4.474;2023-05-29T05:27:03;7.40;;;1.87;;
13897;SDS011;7019;50.766;4.474;2023-05-29T05:29:32;6.50;;;2.23;;
13897;SDS011;7019;50.766;4.474;2023-05-29T05:31:59;7.97;;;2.20;;
13897;SDS011;7019;50.766;4.474;2023-05-29T05:34:26;8.67;;;2.80;;
13897;SDS011;7019;50.766;4.474;2023-05-29T05:36:53;6.93;;;1.90;;
13897;SDS011;7019;50.766;4.474;2023-05-29T05:39:20;4.83;;;1.73;;
13897;SDS011;7019;50.766;4.474;2023-05-29T05:41:47;6.03;;;1.73;;
13897;SDS011;7019;50.766;4.474;2023-05-29T05:44:14;4.23;;;1.40;;
13897;SDS011;7019;50.766;4.474;2023-05-29T05:46:42;5.47;;;2.03;;
13897;SDS011;7019;50.766;4.474;2023-05-29T05:49:10;5.80;;;1.40;;
13897;SDS011;7019;50.766;4.474;2023-05-29T05:51:37;5.40;;;1.63;;
13897;SDS011;7019;50.766;4.474;2023-05-29T05:54:04;8.03;;;2.27;;
13897;SDS011;7019;50.766;4.474;2023-05-29T05:56:31;6.80;;;1.60;;
13897;SDS011;7019;50.766;4.474;2023-05-29T05:58:58;6.87;;;1.83;;
13897;SDS011;7019;50.766;4.474;2023-05-29T06:01:26;5.63;;;1.70;;
13897;SDS011;7019;50.766;4.474;2023-05-29T06:03:55;6.93;;;1.93;;
13897;SDS011;7019;50.766;4.474;2023-05-29T06:06:22;4.70;;;1.63;;
13897;SDS011;7019;50.766;4.474;2023-05-29T06:08:49;3.23;;;1.47;;
13897;SDS011;7019;50.766;4.474;2023-05-29T06:11:16;5.80;;;1.80;;
13897;SDS011;7019;50.766;4.474;2023-05-29T06:13:43;5.40;;;1.77;;
13897;SDS011;7019;50.766;4.474;2023-05-29T06:16:10;7.03;;;1.93;;
13897;SDS011;7019;50.766;4.474;2023-05-29T06:18:37;8.37;;;1.90;;
13897;SDS011;7019;50.766;4.474;2023-05-29T06:21:06;3.60;;;1.53;;
13897;SDS011;7019;50.766;4.474;2023-05-29T06:23:34;4.27;;;1.67;;
13897;SDS011;7019;50.766;4.474;2023-05-29T06:26:02;5.43;;;1.83;;
13897;SDS011;7019;50.766;4.474;2023-05-29T06:28:29;5.10;;;1.40;;
13897;SDS011;7019;50.766;4.474;2023-05-29T06:30:56;6.20;;;1.43;;
13897;SDS011;7019;50.766;4.474;2023-05-29T06:33:23;5.07;;;1.70;;
13897;SDS011;7019;50.766;4.474;2023-05-29T06:35:50;4.13;;;1.67;;
13897;SDS011;7019;50.766;4.474;2023-05-29T06:38:19;5.33;;;1.73;;
13897;SDS011;7019;50.766;4.474;2023-05-29T06:40:46;5.63;;;1.87;;
13897;SDS011;7019;50.766;4.474;2023-05-29T06:43:13;4.27;;;1.57;;
13897;SDS011;7019;50.766;4.474;2023-05-29T06:45:40;6.53;;;2.37;;
13897;SDS011;7019;50.766;4.474;2023-05-29T06:48:07;4.67;;;1.87;;
13897;SDS011;7019;50.766;4.474;2023-05-29T06:50:34;8.07;;;1.83;;
13897;SDS011;7019;50.766;4.474;2023-05-29T06:53:01;7.10;;;2.23;;
13897;SDS011;7019;50.766;4.474;2023-05-29T06:55:29;5.60;;;1.53;;
13897;SDS011;7019;50.766;4.474;2023-05-29T06:57:56;6.97;;;1.83;;
13897;SDS011;7019;50.766;4.474;2023-05-29T07:00:23;5.07;;;1.83;;
13897;SDS011;7019;50.766;4.474;2023-05-29T07:02:50;6.83;;;1.97;;
13897;SDS011;7019;50.766;4.474;2023-05-29T07:05:17;6.60;;;2.50;;
13897;SDS011;7019;50.766;4.474;2023-05-29T07:07:44;4.50;;;1.90;;
13897;SDS011;7019;50.766;4.474;2023-05-29T07:10:11;7.50;;;1.90;;
13897;SDS011;7019;50.766;4.474;2023-05-29T07:12:40;6.77;;;1.90;;
13897;SDS011;7019;50.766;4.474;2023-05-29T07:15:07;6.13;;;1.80;;
13897;SDS011;7019;50.766;4.474;2023-05-29T07:17:35;6.70;;;2.03;;
13897;SDS011;7019;50.766;4.474;2023-05-29T07:20:02;4.80;;;2.07;;
13897;SDS011;7019;50.766;4.474;2023-05-29T07:22:32;3.47;;;1.67;;
13897;SDS011;7019;50.766;4.474;2023-05-29T07:24:59;6.93;;;1.90;;
13897;SDS011;7019;50.766;4.474;2023-05-29T07:27:27;6.30;;;1.87;;
13897;SDS011;7019;50.766;4.474;2023-05-29T07:29:56;6.87;;;1.87;;
13897;SDS011;7019;50.766;4.474;2023-05-29T07:32:23;3.47;;;1.87;;
13897;SDS011;7019;50.766;4.474;2023-05-29T07:34:50;6.50;;;1.47;;
13897;SDS011;7019;50.766;4.474;2023-05-29T07:37:17;6.60;;;1.70;;
13897;SDS011;7019;50.766;4.474;2023-05-29T07:39:44;6.50;;;2.30;;
13897;SDS011;7019;50.766;4.474;2023-05-29T07:42:11;8.60;;;1.93;;
13897;SDS011;7019;50.766;4.474;2023-05-29T07:44:38;7.63;;;2.10;;
13897;SDS011;7019;50.766;4.474;2023-05-29T07:47:08;5.73;;;1.83;;
13897;SDS011;7019;50.766;4.474;2023-05-29T07:49:36;6.80;;;1.77;;
13897;SDS011;7019;50.766;4.474;2023-05-29T07:52:03;5.70;;;1.83;;
13897;SDS011;7019;50.766;4.474;2023-05-29T07:54:30;5.40;;;1.80;;
13897;SDS011;7019;50.766;4.474;2023-05-29T07:56:58;6.47;;;2.00;;
13897;SDS011;7019;50.766;4.474;2023-05-29T07:59:25;9.10;;;1.90;;
13897;SDS011;7019;50.766;4.474;2023-05-29T08:01:52;5.20;;;1.60;;
13897;SDS011;7019;50.766;4.474;2023-05-29T08:04:24;5.23;;;1.30;;
13897;SDS011;7019;50.766;4.474;2023-05-29T08:06:51;5.20;;;2.20;;
13897;SDS011;7019;50.766;4.474;2023-05-29T08:09:18;5.57;;;1.37;;
13897;SDS011;7019;50.766;4.474;2023-05-29T08:11:45;7.40;;;1.50;;
13897;SDS011;7019;50.766;4.474;2023-05-29T08:14:13;7.17;;;1.90;;
13897;SDS011;7019;50.766;4.474;2023-05-29T08:16:40;8.10;;;1.93;;
13897;SDS011;7019;50.766;4.474;2023-05-29T08:19:07;5.60;;;2.00;;
13897;SDS011;7019;50.766;4.474;2023-05-29T08:21:36;4.37;;;1.43;;
13897;SDS011;7019;50.766;4.474;2023-05-29T08:24:04;4.83;;;1.50;;
13897;SDS011;7019;50.766;4.474;2023-05-29T08:26:31;6.57;;;1.57;;
13897;SDS011;7019;50.766;4.474;2023-05-29T08:28:58;8.20;;;2.30;;
13897;SDS011;7019;50.766;4.474;2023-05-29T08:31:25;3.77;;;2.00;;
13897;SDS011;7019;50.766;4.474;2023-05-29T08:33:53;5.93;;;1.20;;
13897;SDS011;7019;50.766;4.474;2023-05-29T08:36:20;4.97;;;1.37;;
13897;SDS011;7019;50.766;4.474;2023-05-29T08:38:48;3.23;;;1.47;;
13897;SDS011;7019;50.766;4.474;2023-05-29T08:41:17;5.77;;;1.63;;
13897;SDS011;7019;50.766;4.474;2023-05-29T08:43:49;4.00;;;1.30;;
13897;SDS011;7019;50.766;4.474;2023-05-29T08:46:17;6.30;;;1.50;;
13897;SDS011;7019;50.766;4.474;2023-05-29T08:48:47;6.10;;;1.67;;
13897;SDS011;7019;50.766;4.474;2023-05-29T08:51:16;7.43;;;2.10;;
13897;SDS011;7019;50.766;4.474;2023-05-29T08:53:46;6.67;;;2.40;;
13897;SDS011;7019;50.766;4.474;2023-05-29T08:56:16;7.00;;;1.97;;
13897;SDS011;7019;50.766;4.474;2023-05-29T08:58:44;10.07;;;1.93;;
13897;SDS011;7019;50.766;4.474;2023-05-29T09:01:12;6.47;;;1.70;;
13897;SDS011;7019;50.766;4.474;2023-05-29T09:03:41;4.70;;;2.10;;
13897;SDS011;7019;50.766;4.474;2023-05-29T09:06:08;7.03;;;1.77;;
13897;SDS011;7019;50.766;4.474;2023-05-29T09:08:35;6.57;;;1.83;;
13897;SDS011;7019;50.766;4.474;2023-05-29T09:11:04;3.70;;;1.70;;
13897;SDS011;7019;50.766;4.474;2023-05-29T09:13:31;5.73;;;1.67;;
13897;SDS011;7019;50.766;4.474;2023-05-29T09:15:58;6.37;;;1.90;;
13897;SDS011;7019;50.766;4.474;2023-05-29T09:18:28;5.63;;;1.97;;
13897;SDS011;7019;50.766;4.474;2023-05-29T09:20:56;5.57;;;1.70;;
13897;SDS011;7019;50.766;4.474;2023-05-29T09:23:24;8.90;;;1.83;;
13897;SDS011;7019;50.766;4.474;2023-05-29T09:25:52;5.17;;;1.97;;
13897;SDS011;7019;50.766;4.474;2023-05-29T09:28:21;6.87;;;2.83;;
13897;SDS011;7019;50.766;4.474;2023-05-29T09:30:52;10.73;;;3.17;;
13897;SDS011;7019;50.766;4.474;2023-05-29T09:33:19;6.13;;;1.60;;
13897;SDS011;7019;50.766;4.474;2023-05-29T09:35:46;4.23;;;1.67;;
13897;SDS011;7019;50.766;4.474;2023-05-29T09:38:15;6.90;;;2.37;;
13897;SDS011;7019;50.766;4.474;2023-05-29T09:40:43;5.87;;;1.90;;
13897;SDS011;7019;50.766;4.474;2023-05-29T09:43:12;5.40;;;1.87;;
13897;SDS011;7019;50.766;4.474;2023-05-29T09:45:43;5.00;;;1.90;;
13897;SDS011;7019;50.766;4.474;2023-05-29T09:48:12;7.90;;;2.00;;
13897;SDS011;7019;50.766;4.474;2023-05-29T09:50:40;5.53;;;1.70;;
13897;SDS011;7019;50.766;4.474;2023-05-29T09:53:19;8.37;;;2.20;;
13897;SDS011;7019;50.766;4.474;2023-05-29T09:55:49;6.87;;;2.00;;
13897;SDS011;7019;50.766;4.474;2023-05-29T09:58:17;7.17;;;1.77;;
13897;SDS011;7019;50.766;4.474;2023-05-29T10:00:46;7.13;;;2.50;;
13897;SDS011;7019;50.766;4.474;2023-05-29T10:03:15;4.53;;;1.60;;
13897;SDS011;7019;50.766;4.474;2023-05-29T10:05:43;9.03;;;1.70;;
13897;SDS011;7019;50.766;4.474;2023-05-29T10:08:14;5.97;;;2.00;;
13897;SDS011;7019;50.766;4.474;2023-05-29T10:10:45;4.17;;;1.90;;
13897;SDS011;7019;50.766;4.474;2023-05-29T10:13:13;6.67;;;1.63;;
13897;SDS011;7019;50.766;4.474;2023-05-29T10:15:41;6.57;;;2.10;;
13897;SDS011;7019;50.766;4.474;2023-05-29T10:18:13;3.17;;;1.33;;
13897;SDS011;7019;50.766;4.474;2023-05-29T10:20:46;3.50;;;1.63;;
13897;SDS011;7019;50.766;4.474;2023-05-29T10:23:17;7.73;;;1.70;;
13897;SDS011;7019;50.766;4.474;2023-05-29T10:25:49;6.10;;;2.03;;
13897;SDS011;7019;50.766;4.474;2023-05-29T10:28:19;4.50;;;1.93;;
13897;SDS011;7019;50.766;4.474;2023-05-29T10:30:49;4.70;;;2.27;;
13897;SDS011;7019;50.766;4.474;2023-05-29T10:33:26;8.30;;;2.67;;
13897;SDS011;7019;50.766;4.474;2023-05-29T10:36:12;7.33;;;2.33;;
13897;SDS011;7019;50.766;4.474;2023-05-29T10:38:40;6.57;;;1.70;;
13897;SDS011;7019;50.766;4.474;2023-05-29T10:41:28;7.83;;;2.23;;
13897;SDS011;7019;50.766;4.474;2023-05-29T10:43:58;5.50;;;1.97;;
13897;SDS011;7019;50.766;4.474;2023-05-29T10:49:35;5.83;;;1.73;;
13897;SDS011;7019;50.766;4.474;2023-05-29T10:52:03;6.97;;;1.80;;
13897;SDS011;7019;50.766;4.474;2023-05-29T10:54:40;4.20;;;1.60;;
13897;SDS011;7019;50.766;4.474;2023-05-29T10:57:16;8.57;;;1.60;;
13897;SDS011;7019;50.766;4.474;2023-05-29T10:59:44;6.47;;;1.83;;
13897;SDS011;7019;50.766;4.474;2023-05-29T11:02:11;4.80;;;1.70;;
13897;SDS011;7019;50.766;4.474;2023-05-29T11:04:46;7.13;;;2.10;;
13897;SDS011;7019;50.766;4.474;2023-05-29T11:07:34;7.30;;;2.00;;
13897;SDS011;7019;50.766;4.474;2023-05-29T11:10:11;6.73;;;1.67;;
13897;SDS011;7019;50.766;4.474;2023-05-29T11:15:25;4.80;;;1.60;;
13897;SDS011;7019;50.766;4.474;2023-05-29T11:17:52;2.57;;;1.80;;
13897;SDS011;7019;50.766;4.474;2023-05-29T11:20:33;7.10;;;1.80;;
13897;SDS011;7019;50.766;4.474;2023-05-29T11:23:03;2.83;;;1.20;;
13897;SDS011;7019;50.766;4.474;2023-05-29T11:25:33;4.97;;;1.83;;
13897;SDS011;7019;50.766;4.474;2023-05-29T11:28:02;4.70;;;1.83;;
13897;SDS011;7019;50.766;4.474;2023-05-29T11:30:40;5.80;;;1.80;;
13897;SDS011;7019;50.766;4.474;2023-05-29T11:33:08;6.30;;;1.70;;
13897;SDS011;7019;50.766;4.474;2023-05-29T11:35:56;5.13;;;1.57;;
13897;SDS011;7019;50.766;4.474;2023-05-29T11:38:25;7.77;;;2.10;;
13897;SDS011;7019;50.766;4.474;2023-05-29T11:40:52;7.00;;;1.90;;
13897;SDS011;7019;50.766;4.474;2023-05-29T11:43:20;4.57;;;2.07;;
13897;SDS011;7019;50.766;4.474;2023-05-29T11:45:48;4.37;;;1.47;;
13897;SDS011;7019;50.766;4.474;2023-05-29T11:48:15;6.63;;;1.70;;
13897;SDS011;7019;50.766;4.474;2023-05-29T11:50:42;4.90;;;1.67;;
13897;SDS011;7019;50.766;4.474;2023-05-29T11:53:11;8.43;;;1.80;;
13897;SDS011;7019;50.766;4.474;2023-05-29T11:55:38;8.33;;;2.07;;
13897;SDS011;7019;50.766;4.474;2023-05-29T11:58:05;7.10;;;2.07;;
13897;SDS011;7019;50.766;4.474;2023-05-29T12:00:33;2.60;;;1.40;;
13897;SDS011;7019;50.766;4.474;2023-05-29T12:03:01;6.40;;;1.87;;
13897;SDS011;7019;50.766;4.474;2023-05-29T12:05:29;7.03;;;1.83;;
13897;SDS011;7019;50.766;4.474;2023-05-29T12:07:57;3.87;;;1.60;;
13897;SDS011;7019;50.766;4.474;2023-05-29T12:10:28;3.90;;;1.80;;
13897;SDS011;7019;50.766;4.474;2023-05-29T12:12:56;4.73;;;1.67;;
13897;SDS011;7019;50.766;4.474;2023-05-29T12:15:25;5.27;;;1.53;;
13897;SDS011;7019;50.766;4.474;2023-05-29T12:17:52;5.63;;;1.80;;
13897;SDS011;7019;50.766;4.474;2023-05-29T12:20:22;5.67;;;1.70;;
13897;SDS011;7019;50.766;4.474;2023-05-29T12:22:52;4.43;;;1.60;;
13897;SDS011;7019;50.766;4.474;2023-05-29T12:25:20;4.30;;;1.73;;
13897;SDS011;7019;50.766;4.474;2023-05-29T12:27:49;6.50;;;1.30;;
13897;SDS011;7019;50.766;4.474;2023-05-29T12:30:19;7.43;;;2.30;;
13897;SDS011;7019;50.766;4.474;2023-05-29T12:32:48;8.90;;;1.90;;
13897;SDS011;7019;50.766;4.474;2023-05-29T12:35:17;4.50;;;1.53;;
13897;SDS011;7019;50.766;4.474;2023-05-29T12:37:45;8.60;;;1.63;;
13897;SDS011;7019;50.766;4.474;2023-05-29T12:40:17;3.57;;;1.50;;
13897;SDS011;7019;50.766;4.474;2023-05-29T12:42:45;6.23;;;2.60;;
13897;SDS011;7019;50.766;4.474;2023-05-29T12:45:14;4.30;;;1.70;;
13897;SDS011;7019;50.766;4.474;2023-05-29T12:47:51;5.27;;;1.70;;
13897;SDS011;7019;50.766;4.474;2023-05-29T12:50:28;3.27;;;1.50;;
13897;SDS011;7019;50.766;4.474;2023-05-29T12:52:57;4.83;;;1.53;;
13897;SDS011;7019;50.766;4.474;2023-05-29T12:55:25;3.57;;;1.17;;
13897;SDS011;7019;50.766;4.474;2023-05-29T12:57:53;4.50;;;2.13;;
13897;SDS011;7019;50.766;4.474;2023-05-29T13:00:22;3.57;;;1.70;;
13897;SDS011;7019;50.766;4.474;2023-05-29T13:02:50;6.30;;;2.00;;
13897;SDS011;7019;50.766;4.474;2023-05-29T13:05:17;3.40;;;1.60;;
13897;SDS011;7019;50.766;4.474;2023-05-29T13:07:48;6.40;;;1.60;;
13897;SDS011;7019;50.766;4.474;2023-05-29T13:10:15;7.83;;;1.63;;
13897;SDS011;7019;50.766;4.474;2023-05-29T13:12:42;4.40;;;1.37;;
13897;SDS011;7019;50.766;4.474;2023-05-29T13:15:10;4.63;;;1.83;;
13897;SDS011;7019;50.766;4.474;2023-05-29T13:17:40;3.67;;;1.80;;
13897;SDS011;7019;50.766;4.474;2023-05-29T13:20:08;4.77;;;1.60;;
13897;SDS011;7019;50.766;4.474;2023-05-29T13:22:36;2.97;;;1.33;;
13897;SDS011;7019;50.766;4.474;2023-05-29T13:25:04;7.53;;;2.03;;
13897;SDS011;7019;50.766;4.474;2023-05-29T13:27:33;3.17;;;1.73;;
13897;SDS011;7019;50.766;4.474;2023-05-29T13:30:00;2.80;;;1.43;;
13897;SDS011;7019;50.766;4.474;2023-05-29T13:32:28;3.37;;;1.30;;
13897;SDS011;7019;50.766;4.474;2023-05-29T13:34:57;3.73;;;1.23;;
13897;SDS011;7019;50.766;4.474;2023-05-29T13:37:24;4.17;;;1.40;;
13897;SDS011;7019;50.766;4.474;2023-05-29T13:39:52;2.67;;;1.40;;
13897;SDS011;7019;50.766;4.474;2023-05-29T13:42:20;3.20;;;1.30;;
13897;SDS011;7019;50.766;4.474;2023-05-29T13:44:47;6.53;;;1.40;;
13897;SDS011;7019;50.766;4.474;2023-05-29T13:47:15;5.50;;;1.63;;
13897;SDS011;7019;50.766;4.474;2023-05-29T13:49:42;5.20;;;1.60;;
13897;SDS011;7019;50.766;4.474;2023-05-29T13:52:10;3.93;;;1.40;;
13897;SDS011;7019;50.766;4.474;2023-05-29T13:54:38;3.90;;;1.73;;
13897;SDS011;7019;50.766;4.474;2023-05-29T13:57:05;3.47;;;1.63;;
13897;SDS011;7019;50.766;4.474;2023-05-29T13:59:33;5.53;;;2.00;;
13897;SDS011;7019;50.766;4.474;2023-05-29T14:02:01;5.57;;;1.20;;
13897;SDS011;7019;50.766;4.474;2023-05-29T14:04:28;3.90;;;1.70;;
13897;SDS011;7019;50.766;4.474;2023-05-29T14:06:56;3.33;;;1.60;;
13897;SDS011;7019;50.766;4.474;2023-05-29T14:09:24;3.00;;;1.40;;
13897;SDS011;7019;50.766;4.474;2023-05-29T14:11:55;5.30;;;1.40;;
13897;SDS011;7019;50.766;4.474;2023-05-29T14:14:23;3.30;;;1.80;;
13897;SDS011;7019;50.766;4.474;2023-05-29T14:16:51;8.37;;;1.60;;
13897;SDS011;7019;50.766;4.474;2023-05-29T14:19:19;4.87;;;1.60;;
13897;SDS011;7019;50.766;4.474;2023-05-29T14:21:47;5.47;;;1.87;;
13897;SDS011;7019;50.766;4.474;2023-05-29T14:24:14;2.87;;;1.60;;
13897;SDS011;7019;50.766;4.474;2023-05-29T14:26:44;6.07;;;1.50;;
13897;SDS011;7019;50.766;4.474;2023-05-29T14:29:12;5.53;;;1.80;;
13897;SDS011;7019;50.766;4.474;2023-05-29T14:31:39;3.87;;;1.83;;
13897;SDS011;7019;50.766;4.474;2023-05-29T14:34:07;4.10;;;1.60;;
13897;SDS011;7019;50.766;4.474;2023-05-29T14:36:34;4.27;;;1.57;;
13897;SDS011;7019;50.766;4.474;2023-05-29T14:39:02;4.10;;;1.87;;
13897;SDS011;7019;50.766;4.474;2023-05-29T14:41:29;4.30;;;1.80;;
13897;SDS011;7019;50.766;4.474;2023-05-29T14:43:57;5.30;;;1.47;;
13897;SDS011;7019;50.766;4.474;2023-05-29T14:46:25;3.67;;;1.90;;
13897;SDS011;7019;50.766;4.474;2023-05-29T14:48:56;4.37;;;1.67;;
13897;SDS011;7019;50.766;4.474;2023-05-29T14:51:24;4.87;;;1.83;;
13897;SDS011;7019;50.766;4.474;2023-05-29T14:53:51;4.00;;;1.40;;
13897;SDS011;7019;50.766;4.474;2023-05-29T14:56:18;3.37;;;1.87;;
13897;SDS011;7019;50.766;4.474;2023-05-29T14:58:45;6.53;;;1.70;;
13897;SDS011;7019;50.766;4.474;2023-05-29T15:01:14;5.33;;;1.60;;
13897;SDS011;7019;50.766;4.474;2023-05-29T15:03:41;3.23;;;1.53;;
13897;SDS011;7019;50.766;4.474;2023-05-29T15:06:09;5.27;;;1.70;;
13897;SDS011;7019;50.766;4.474;2023-05-29T15:08:37;4.90;;;1.60;;
13897;SDS011;7019;50.766;4.474;2023-05-29T15:11:05;5.73;;;1.63;;
13897;SDS011;7019;50.766;4.474;2023-05-29T15:13:32;3.47;;;1.67;;